Time;durP1;ratioP1;P1;durP2;ratioP2;P2;SDS_P1;SDS_P2;PMS_P1;PMS_P2;Temp;Humidity;BMP_temperature;BMP_pressure;BME280_temperature;BME280_humidity;BME280_pressure;Samples;Min_cycle;Max_cycle;Signal;HPM_P1;HPM_P2
2022/04/14 00:00:53;;;;;;;3.47;2.15;;;;;;;;;;5030864;28;20095;-71
2022/04/14 00:03:20;;;;;;;4.15;2.22;;;;;;;;;;5027544;28;20041;-71
2022/04/14 00:05:46;;;;;;;3.78;2.60;;;;;;;;;;5014570;28;20492;-71
2022/04/14 00:08:12;;;;;;;4.05;2.50;;;;;;;;;;5014621;28;20073;-71
2022/04/14 00:10:38;;;;;;;3.58;2.35;;;;;;;;;;5016761;28;20053;-71
2022/04/14 00:13:04;;;;;;;3.20;2.25;;;;;;;;;;5033994;28;20041;-71
2022/04/14 00:15:30;;;;;;;2.83;2.38;;;;;;;;;;5034609;28;20071;-71
2022/04/14 00:17:56;;;;;;;3.35;2.20;;;;;;;;;;5034027;28;20551;-71
2022/04/14 00:20:23;;;;;;;2.75;2.30;;;;;;;;;;5025033;28;20046;-71
2022/04/14 00:22:50;;;;;;;3.63;2.40;;;;;;;;;;5022931;28;20421;-71
2022/04/14 00:25:16;;;;;;;3.65;2.20;;;;;;;;;;5029630;28;20082;-71
2022/04/14 00:27:42;;;;;;;2.97;2.35;;;;;;;;;;5014563;28;20050;-71
2022/04/14 00:30:08;;;;;;;4.32;2.22;;;;;;;;;;5023685;28;20581;-71
2022/04/14 00:32:34;;;;;;;3.80;2.40;;;;;;;;;;5022353;28;20034;-71
2022/04/14 00:35:00;;;;;;;3.58;2.20;;;;;;;;;;5034169;28;20524;-71
2022/04/14 00:37:26;;;;;;;3.65;2.40;;;;;;;;;;5033876;28;20416;-71
2022/04/14 00:39:52;;;;;;;3.22;2.10;;;;;;;;;;5030020;28;20038;-71
2022/04/14 00:42:18;;;;;;;3.42;2.20;;;;;;;;;;5028715;28;20072;-71
2022/04/14 00:44:45;;;;;;;3.72;2.42;;;;;;;;;;4999567;28;20077;-71
2022/04/14 00:47:12;;;;;;;3.63;2.30;;;;;;;;;;5031404;28;20497;-71
2022/04/14 00:49:39;;;;;;;2.35;2.10;;;;;;;;;;5031242;28;20527;-71
2022/04/14 00:52:05;;;;;;;3.65;2.28;;;;;;;;;;5033110;28;20045;-71
2022/04/14 00:54:31;;;;;;;4.63;2.33;;;;;;;;;;5033762;28;20056;-71
2022/04/14 00:56:58;;;;;;;2.90;2.20;;;;;;;;;;5011821;28;20099;-71
2022/04/14 00:59:24;;;;;;;3.70;2.40;;;;;;;;;;5014214;28;20046;-71
2022/04/14 01:01:51;;;;;;;3.53;2.28;;;;;;;;;;5017571;28;20048;-71
2022/04/14 01:04:17;;;;;;;2.72;2.40;;;;;;;;;;5015091;28;20077;-71
2022/04/14 01:06:44;;;;;;;3.25;2.20;;;;;;;;;;5031487;28;20051;-71
2022/04/14 01:09:18;;;;;;;3.55;2.10;;;;;;;;;;5013724;28;20076;-71
2022/04/14 01:11:45;;;;;;;2.97;2.30;;;;;;;;;;5015012;28;20053;-71
2022/04/14 01:14:29;;;;;;;3.47;2.33;;;;;;;;;;5032531;28;20041;-71
2022/04/14 01:16:56;;;;;;;3.05;2.30;;;;;;;;;;5021881;28;20125;-71
2022/04/14 01:19:22;;;;;;;3.63;2.50;;;;;;;;;;5013640;28;20034;-71
2022/04/14 01:22:01;;;;;;;3.25;2.30;;;;;;;;;;5013341;28;20042;-71
2022/04/14 01:24:27;;;;;;;3.95;2.40;;;;;;;;;;5032571;28;20038;-71
2022/04/14 01:26:54;;;;;;;3.25;2.42;;;;;;;;;;5014705;28;20042;-71
2022/04/14 01:29:22;;;;;;;4.13;2.50;;;;;;;;;;5012123;28;20050;-71
2022/04/14 01:31:48;;;;;;;2.88;2.47;;;;;;;;;;4990426;28;20129;-71
2022/04/14 01:34:14;;;;;;;3.67;2.40;;;;;;;;;;5024644;28;20168;-71
2022/04/14 01:36:40;;;;;;;3.55;2.50;;;;;;;;;;5013036;28;20486;-71
2022/04/14 01:39:08;;;;;;;3.33;2.67;;;;;;;;;;5013325;28;20053;-71
2022/04/14 01:41:34;;;;;;;3.85;2.60;;;;;;;;;;5011548;28;20493;-71
2022/04/14 01:44:00;;;;;;;3.03;2.60;;;;;;;;;;5016236;28;20053;-71
2022/04/14 01:46:26;;;;;;;4.03;2.58;;;;;;;;;;5016849;28;20052;-71
2022/04/14 01:48:52;;;;;;;4.03;2.90;;;;;;;;;;5019858;28;20556;-71
2022/04/14 01:51:19;;;;;;;3.05;2.63;;;;;;;;;;5028250;28;20144;-71
2022/04/14 01:53:45;;;;;;;4.28;2.80;;;;;;;;;;5028266;28;20053;-71
2022/04/14 01:56:11;;;;;;;3.58;2.72;;;;;;;;;;5031184;28;20042;-71
2022/04/14 01:58:37;;;;;;;3.65;2.75;;;;;;;;;;5032022;28;20108;-71
2022/04/14 02:01:03;;;;;;;3.05;2.50;;;;;;;;;;5022283;28;20124;-71
2022/04/14 02:03:29;;;;;;;4.97;2.90;;;;;;;;;;5025187;28;20124;-71
2022/04/14 02:05:55;;;;;;;4.47;3.00;;;;;;;;;;5032584;28;20069;-71
2022/04/14 02:08:21;;;;;;;3.13;2.67;;;;;;;;;;5032532;28;20077;-71
2022/04/14 02:10:47;;;;;;;5.13;2.90;;;;;;;;;;5031147;28;20041;-71
2022/04/14 02:13:13;;;;;;;3.50;2.60;;;;;;;;;;5032141;28;20057;-71
2022/04/14 02:15:39;;;;;;;4.85;2.90;;;;;;;;;;5032818;28;20041;-71
2022/04/14 02:18:05;;;;;;;2.97;2.67;;;;;;;;;;5020807;28;20539;-71
2022/04/14 02:20:31;;;;;;;3.90;2.90;;;;;;;;;;5035063;28;20042;-71
2022/04/14 02:22:57;;;;;;;4.75;3.42;;;;;;;;;;5035981;28;20038;-71
2022/04/14 02:25:23;;;;;;;4.90;3.15;;;;;;;;;;5036515;28;20124;-71
2022/04/14 02:27:49;;;;;;;4.15;3.00;;;;;;;;;;5034173;28;20048;-71
2022/04/14 02:30:15;;;;;;;3.65;2.83;;;;;;;;;;5017753;28;20049;-71
2022/04/14 02:32:41;;;;;;;4.32;3.42;;;;;;;;;;5026234;28;20109;-71
2022/04/14 02:35:08;;;;;;;4.85;3.17;;;;;;;;;;5018099;28;20041;-71
2022/04/14 02:37:34;;;;;;;5.30;3.00;;;;;;;;;;5016515;28;20125;-71
2022/04/14 02:40:00;;;;;;;4.68;3.10;;;;;;;;;;5016329;28;20042;-71
2022/04/14 02:42:26;;;;;;;3.50;2.85;;;;;;;;;;5019399;28;20053;-71
2022/04/14 02:44:52;;;;;;;4.07;3.15;;;;;;;;;;5036301;28;20041;-71
2022/04/14 02:47:18;;;;;;;3.67;2.95;;;;;;;;;;5032120;28;20044;-70
2022/04/14 02:49:44;;;;;;;3.78;3.10;;;;;;;;;;5035224;28;20042;-71
2022/04/14 02:52:10;;;;;;;3.45;3.13;;;;;;;;;;5035842;28;20488;-71
2022/04/14 02:54:39;;;;;;;4.75;3.25;;;;;;;;;;5035508;28;20099;-71
2022/04/14 02:57:06;;;;;;;4.20;3.00;;;;;;;;;;5035476;28;20417;-71
2022/04/14 02:59:32;;;;;;;4.32;3.17;;;;;;;;;;5026272;28;20051;-71
2022/04/14 03:01:58;;;;;;;4.10;3.28;;;;;;;;;;5022081;28;20460;-71
2022/04/14 03:04:24;;;;;;;5.13;3.05;;;;;;;;;;5024995;28;20050;-71
2022/04/14 03:06:51;;;;;;;5.28;3.47;;;;;;;;;;5016945;28;20046;-71
2022/04/14 03:09:17;;;;;;;4.10;3.15;;;;;;;;;;5015819;28;20045;-71
2022/04/14 03:11:43;;;;;;;4.38;3.22;;;;;;;;;;5016014;28;20115;-71
2022/04/14 03:14:09;;;;;;;5.32;3.15;;;;;;;;;;5017772;28;20096;-71
2022/04/14 03:16:35;;;;;;;4.35;3.40;;;;;;;;;;5026722;28;20123;-71
2022/04/14 03:19:01;;;;;;;4.93;3.30;;;;;;;;;;5020505;28;20038;-71
2022/04/14 03:21:27;;;;;;;4.10;3.20;;;;;;;;;;5015748;28;20046;-71
2022/04/14 03:23:53;;;;;;;4.45;3.05;;;;;;;;;;5027388;28;20397;-71
2022/04/14 03:26:19;;;;;;;5.95;3.40;;;;;;;;;;5035700;28;20492;-71
2022/04/14 03:28:45;;;;;;;4.40;3.03;;;;;;;;;;5034958;28;20045;-71
2022/04/14 03:31:11;;;;;;;4.60;3.25;;;;;;;;;;5030521;28;20034;-71
2022/04/14 03:33:37;;;;;;;4.53;3.28;;;;;;;;;;5016823;28;20042;-71
2022/04/14 03:36:04;;;;;;;3.90;3.00;;;;;;;;;;5006297;28;20146;-71
2022/04/14 03:38:30;;;;;;;4.40;3.50;;;;;;;;;;5031552;28;20100;-71
2022/04/14 03:40:57;;;;;;;4.80;3.40;;;;;;;;;;5022680;28;20556;-71
2022/04/14 03:43:23;;;;;;;4.28;3.22;;;;;;;;;;5024100;28;20041;-71
2022/04/14 03:45:49;;;;;;;4.47;3.20;;;;;;;;;;5025977;28;20077;-71
2022/04/14 03:48:15;;;;;;;4.63;3.22;;;;;;;;;;5028174;28;20175;-71
2022/04/14 03:50:41;;;;;;;5.45;3.70;;;;;;;;;;5024199;28;20132;-71
2022/04/14 03:53:07;;;;;;;4.63;3.60;;;;;;;;;;5034549;28;20038;-71
2022/04/14 03:55:33;;;;;;;4.57;3.35;;;;;;;;;;5027070;28;20041;-71
2022/04/14 03:57:59;;;;;;;4.45;3.60;;;;;;;;;;5014550;28;20089;-71
2022/04/14 04:00:25;;;;;;;4.47;3.80;;;;;;;;;;5017603;28;20123;-71
2022/04/14 04:02:52;;;;;;;5.40;3.42;;;;;;;;;;5029860;28;20060;-71
2022/04/14 04:05:17;;;;;;;3.95;3.20;;;;;;;;;;5029428;28;20052;-71
2022/04/14 04:07:43;;;;;;;4.13;3.45;;;;;;;;;;5015840;28;20128;-71
2022/04/14 04:10:09;;;;;;;4.07;3.40;;;;;;;;;;5034619;28;20037;-71
2022/04/14 04:12:35;;;;;;;5.35;3.40;;;;;;;;;;5034022;28;20381;-71
2022/04/14 04:15:02;;;;;;;4.30;3.47;;;;;;;;;;5016278;28;20045;-71
2022/04/14 04:17:28;;;;;;;3.78;3.28;;;;;;;;;;5033829;28;20034;-71
2022/04/14 04:19:55;;;;;;;4.22;3.10;;;;;;;;;;5034174;28;20559;-71
2022/04/14 04:22:21;;;;;;;4.93;3.88;;;;;;;;;;5016424;28;20049;-71
2022/04/14 04:24:47;;;;;;;5.57;3.70;;;;;;;;;;5033776;28;20053;-71
2022/04/14 04:27:13;;;;;;;4.25;3.60;;;;;;;;;;5033687;28;20140;-71
2022/04/14 04:29:39;;;;;;;5.43;3.60;;;;;;;;;;5033520;28;20081;-70
2022/04/14 04:32:05;;;;;;;6.45;3.60;;;;;;;;;;5033239;28;20513;-71
2022/04/14 04:34:31;;;;;;;4.57;3.42;;;;;;;;;;5033517;28;20045;-71
2022/04/14 04:36:57;;;;;;;4.63;3.55;;;;;;;;;;5016043;28;20045;-71
2022/04/14 04:39:23;;;;;;;4.82;4.00;;;;;;;;;;5013746;28;20493;-71
2022/04/14 04:41:49;;;;;;;4.93;3.50;;;;;;;;;;5013830;28;20050;-71
2022/04/14 04:44:15;;;;;;;4.43;3.50;;;;;;;;;;5026701;28;20502;-71
2022/04/14 04:46:41;;;;;;;5.22;3.58;;;;;;;;;;5033655;28;20037;-71
2022/04/14 04:49:07;;;;;;;4.70;3.60;;;;;;;;;;5023080;28;20452;-71
2022/04/14 04:51:33;;;;;;;5.90;3.90;;;;;;;;;;5019055;28;20104;-71
2022/04/14 04:53:59;;;;;;;4.88;3.97;;;;;;;;;;5032840;28;20041;-71
2022/04/14 04:56:26;;;;;;;4.80;3.60;;;;;;;;;;5033476;28;20049;-71
2022/04/14 04:58:52;;;;;;;5.80;4.10;;;;;;;;;;5033289;28;20049;-71
2022/04/14 05:01:18;;;;;;;6.25;4.22;;;;;;;;;;5033324;28;20489;-71
2022/04/14 05:03:44;;;;;;;5.05;3.78;;;;;;;;;;5034106;28;20091;-71
2022/04/14 05:06:10;;;;;;;4.85;3.75;;;;;;;;;;5032738;28;20045;-71
2022/04/14 05:08:36;;;;;;;5.65;3.85;;;;;;;;;;5033651;28;20400;-71
2022/04/14 05:11:02;;;;;;;5.03;3.90;;;;;;;;;;5033233;28;20048;-71
2022/04/14 05:13:28;;;;;;;4.68;3.50;;;;;;;;;;5032875;28;20038;-71
2022/04/14 05:15:54;;;;;;;6.72;3.90;;;;;;;;;;5015848;28;20045;-71
2022/04/14 05:18:20;;;;;;;5.40;3.75;;;;;;;;;;5028744;28;20041;-71
2022/04/14 05:20:46;;;;;;;4.68;3.40;;;;;;;;;;5030608;28;20048;-71
2022/04/14 05:23:12;;;;;;;4.13;3.00;;;;;;;;;;5032621;28;20370;-71
2022/04/14 05:25:41;;;;;;;4.82;3.20;;;;;;;;;;5015349;28;20507;-71
2022/04/14 05:28:07;;;;;;;3.65;2.92;;;;;;;;;;5031802;28;20551;-71
2022/04/14 05:30:33;;;;;;;3.67;3.00;;;;;;;;;;5033069;28;20045;-71
2022/04/14 05:32:59;;;;;;;4.25;3.10;;;;;;;;;;5031873;28;20476;-71
2022/04/14 05:35:25;;;;;;;4.28;2.70;;;;;;;;;;5030332;28;20046;-71
2022/04/14 05:37:51;;;;;;;5.40;3.00;;;;;;;;;;5032373;28;20492;-71
2022/04/14 05:40:17;;;;;;;4.63;3.03;;;;;;;;;;5011428;28;20068;-71
2022/04/14 05:42:46;;;;;;;3.95;2.42;;;;;;;;;;5015754;28;20137;-70
2022/04/14 05:45:13;;;;;;;4.55;2.53;;;;;;;;;;5012871;28;20046;-70
2022/04/14 05:47:39;;;;;;;3.72;2.45;;;;;;;;;;5021817;28;20095;-70
2022/04/14 05:50:05;;;;;;;6.38;2.80;;;;;;;;;;5019341;28;20041;-69
2022/04/14 05:52:31;;;;;;;4.10;2.50;;;;;;;;;;5032932;28;20056;-68
2022/04/14 05:55:01;;;;;;;4.20;2.30;;;;;;;;;;5032168;28;20041;-71
2022/04/14 05:57:27;;;;;;;5.57;2.30;;;;;;;;;;5021629;28;20065;-72
2022/04/14 05:59:53;;;;;;;3.90;2.50;;;;;;;;;;5018050;28;20420;-73
2022/04/14 06:02:19;;;;;;;4.07;2.30;;;;;;;;;;5015028;28;20504;-73
2022/04/14 06:04:45;;;;;;;4.05;2.25;;;;;;;;;;5036051;28;20049;-68
2022/04/14 06:07:11;;;;;;;4.45;2.20;;;;;;;;;;5031290;28;20045;-71
2022/04/14 06:09:37;;;;;;;4.72;2.40;;;;;;;;;;5035407;28;20049;-72
2022/04/14 06:12:04;;;;;;;2.67;2.25;;;;;;;;;;5024505;28;20045;-73
2022/04/14 06:14:30;;;;;;;2.67;2.00;;;;;;;;;;5032086;28;20077;-70
2022/04/14 06:16:56;;;;;;;3.00;2.03;;;;;;;;;;5030879;28;20049;-69
2022/04/14 06:19:22;;;;;;;4.45;2.40;;;;;;;;;;5054668;28;20111;-72
2022/04/14 06:21:48;;;;;;;3.75;2.00;;;;;;;;;;5024388;28;20489;-72
2022/04/14 06:24:14;;;;;;;4.45;2.60;;;;;;;;;;5023605;28;20068;-72
2022/04/14 06:26:40;;;;;;;4.45;2.70;;;;;;;;;;5017659;28;20076;-70
2022/04/14 06:29:06;;;;;;;7.47;3.28;;;;;;;;;;5036368;28;20056;-70
2022/04/14 06:31:32;;;;;;;8.50;3.50;;;;;;;;;;5031327;28;20075;-69
2022/04/14 06:33:58;;;;;;;12.00;3.72;;;;;;;;;;5023287;28;20043;-68
2022/04/14 06:36:24;;;;;;;10.32;4.25;;;;;;;;;;5035753;28;20095;-69
2022/04/14 06:38:50;;;;;;;11.25;3.45;;;;;;;;;;5018287;28;20085;-69
2022/04/14 06:41:16;;;;;;;8.65;3.42;;;;;;;;;;5034323;28;20080;-69
2022/04/14 06:43:42;;;;;;;8.32;3.30;;;;;;;;;;5031279;28;20071;-69
2022/04/14 06:46:08;;;;;;;9.52;3.13;;;;;;;;;;5027751;28;20604;-69
2022/04/14 06:48:34;;;;;;;9.30;4.05;;;;;;;;;;5034306;28;20033;-69
2022/04/14 06:51:01;;;;;;;16.30;4.00;;;;;;;;;;5035067;28;20452;-69
2022/04/14 06:53:27;;;;;;;13.45;4.28;;;;;;;;;;5027390;28;20076;-69
2022/04/14 06:55:53;;;;;;;18.58;4.65;;;;;;;;;;5019399;28;20125;-71
2022/04/14 06:58:20;;;;;;;11.73;3.95;;;;;;;;;;5028175;28;20045;-71
2022/04/14 07:00:46;;;;;;;11.77;4.00;;;;;;;;;;5022014;28;20049;-72
2022/04/14 07:03:12;;;;;;;12.93;3.72;;;;;;;;;;5033968;28;20049;-69
2022/04/14 07:05:38;;;;;;;12.15;3.58;;;;;;;;;;5028357;28;20497;-70
2022/04/14 07:08:04;;;;;;;11.20;3.53;;;;;;;;;;5026957;28;20089;-70
2022/04/14 07:10:30;;;;;;;11.10;3.38;;;;;;;;;;5030676;28;20054;-70
2022/04/14 07:12:56;;;;;;;46.60;9.98;;;;;;;;;;5026229;28;20041;-70
2022/04/14 07:15:22;;;;;;;18.30;5.15;;;;;;;;;;5030148;28;20041;-70
2022/04/14 07:17:48;;;;;;;18.27;5.63;;;;;;;;;;5013280;28;20440;-69
2022/04/14 07:20:14;;;;;;;21.35;5.88;;;;;;;;;;5033244;28;20045;-69
2022/04/14 07:22:44;;;;;;;20.27;5.85;;;;;;;;;;5028377;28;20050;-70
2022/04/14 07:25:11;;;;;;;26.65;5.93;;;;;;;;;;5019835;28;20485;-69
2022/04/14 07:27:37;;;;;;;17.08;4.82;;;;;;;;;;5033972;28;20088;-69
2022/04/14 07:30:03;;;;;;;31.00;6.22;;;;;;;;;;5033371;28;20037;-70
2022/04/14 07:32:39;;;;;;;31.48;7.32;;;;;;;;;;5030231;28;20045;-71
2022/04/14 07:35:06;;;;;;;29.20;7.22;;;;;;;;;;5033689;28;20048;-70
2022/04/14 07:37:32;;;;;;;23.17;6.55;;;;;;;;;;5026812;28;20046;-71
2022/04/14 07:39:59;;;;;;;22.42;5.93;;;;;;;;;;5032011;28;20080;-71
2022/04/14 07:42:34;;;;;;;22.42;5.97;;;;;;;;;;5034379;28;20037;-70
2022/04/14 07:45:00;;;;;;;28.85;5.35;;;;;;;;;;5023369;28;20037;-70
2022/04/14 07:47:26;;;;;;;17.67;5.32;;;;;;;;;;5033909;28;20038;-71
2022/04/14 07:49:52;;;;;;;21.20;5.47;;;;;;;;;;5034032;28;20044;-71
2022/04/14 07:52:18;;;;;;;18.30;5.10;;;;;;;;;;5025518;28;20073;-70
2022/04/14 07:54:44;;;;;;;17.77;5.63;;;;;;;;;;5022485;28;20042;-71
2022/04/14 07:57:11;;;;;;;21.75;5.20;;;;;;;;;;5006899;28;20064;-71
2022/04/14 07:59:37;;;;;;;18.23;5.22;;;;;;;;;;5033404;28;20049;-70
2022/04/14 08:02:03;;;;;;;17.27;5.43;;;;;;;;;;5024098;28;20053;-71
2022/04/14 08:04:30;;;;;;;19.52;5.30;;;;;;;;;;5020836;28;20046;-71
2022/04/14 08:06:57;;;;;;;17.90;4.90;;;;;;;;;;5026736;28;20046;-71
2022/04/14 08:09:23;;;;;;;31.25;5.30;;;;;;;;;;5001110;28;20049;-71
2022/04/14 08:11:49;;;;;;;11.73;4.15;;;;;;;;;;5033710;28;20095;-71
2022/04/14 08:14:15;;;;;;;18.00;5.20;;;;;;;;;;5033473;28;20423;-71
2022/04/14 08:16:41;;;;;;;13.38;4.97;;;;;;;;;;5017853;28;20461;-71
2022/04/14 08:19:07;;;;;;;18.77;4.53;;;;;;;;;;5033248;28;20129;-71
2022/04/14 08:21:33;;;;;;;16.13;4.15;;;;;;;;;;5019501;28;20485;-71
2022/04/14 08:23:59;;;;;;;10.52;4.15;;;;;;;;;;5027030;28;20069;-71
2022/04/14 08:26:28;;;;;;;13.27;4.05;;;;;;;;;;5032129;28;20052;-71
2022/04/14 08:28:55;;;;;;;14.95;4.40;;;;;;;;;;5033880;28;20412;-71
2022/04/14 08:31:22;;;;;;;11.30;3.75;;;;;;;;;;5015390;28;20124;-71
2022/04/14 08:33:52;;;;;;;9.18;3.80;;;;;;;;;;5015807;28;20053;-71
2022/04/14 08:36:19;;;;;;;13.05;4.22;;;;;;;;;;5033184;28;20077;-71
2022/04/14 08:38:46;;;;;;;11.55;4.00;;;;;;;;;;5033886;28;20053;-71
2022/04/14 08:41:17;;;;;;;11.82;3.97;;;;;;;;;;5032378;28;20424;-71
2022/04/14 08:43:56;;;;;;;12.05;3.92;;;;;;;;;;5015944;28;20061;-71
2022/04/14 08:46:23;;;;;;;11.00;3.40;;;;;;;;;;5033648;28;20049;-71
2022/04/14 08:48:52;;;;;;;13.02;4.28;;;;;;;;;;5032907;28;20075;-71
2022/04/14 08:51:20;;;;;;;12.70;4.30;;;;;;;;;;5030644;28;20511;-71
2022/04/14 08:53:47;;;;;;;11.27;3.63;;;;;;;;;;5032846;28;20076;-71
2022/04/14 08:56:14;;;;;;;8.25;3.60;;;;;;;;;;5015457;28;20129;-71
2022/04/14 08:58:42;;;;;;;8.20;3.55;;;;;;;;;;5018007;28;20089;-71
2022/04/14 09:01:08;;;;;;;10.27;3.30;;;;;;;;;;5013531;28;20046;-70
2022/04/14 09:03:35;;;;;;;8.55;3.63;;;;;;;;;;4996279;28;20049;-71
2022/04/14 09:06:02;;;;;;;13.23;3.53;;;;;;;;;;5013466;28;20564;-71
2022/04/14 09:08:28;;;;;;;7.32;3.83;;;;;;;;;;5029686;28;20049;-71
2022/04/14 09:10:54;;;;;;;9.65;3.65;;;;;;;;;;5019696;28;20567;-71
2022/04/14 09:13:20;;;;;;;7.95;3.58;;;;;;;;;;5030008;28;20041;-71
2022/04/14 09:15:49;;;;;;;8.68;3.20;;;;;;;;;;5023727;28;20489;-71
2022/04/14 09:18:16;;;;;;;6.50;3.30;;;;;;;;;;5025707;28;20049;-70
2022/04/14 09:20:43;;;;;;;9.15;3.50;;;;;;;;;;5031923;28;20520;-71
2022/04/14 09:23:10;;;;;;;6.78;3.53;;;;;;;;;;5017919;28;20501;-71
2022/04/14 09:25:36;;;;;;;8.40;3.30;;;;;;;;;;5028355;28;20046;-70
2022/04/14 09:28:09;;;;;;;8.38;3.50;;;;;;;;;;5026982;28;20116;-70
2022/04/14 09:30:35;;;;;;;8.60;3.38;;;;;;;;;;5013258;28;20041;-70
2022/04/14 09:33:02;;;;;;;8.45;3.65;;;;;;;;;;5031969;28;20049;-71
2022/04/14 09:35:31;;;;;;;11.57;4.47;;;;;;;;;;5019908;28;20056;-70
2022/04/14 09:38:08;;;;;;;9.98;4.05;;;;;;;;;;5021166;28;20038;-70
2022/04/14 09:40:34;;;;;;;7.22;3.85;;;;;;;;;;5014843;28;20050;-71
2022/04/14 09:43:01;;;;;;;11.98;7.05;;;;;;;;;;5028251;28;20045;-71
2022/04/14 09:45:28;;;;;;;10.20;6.45;;;;;;;;;;5013088;28;20042;-71
2022/04/14 09:47:55;;;;;;;7.70;4.97;;;;;;;;;;5025254;28;20049;-71
2022/04/14 09:50:25;;;;;;;10.32;5.00;;;;;;;;;;5031493;28;20068;-72
2022/04/14 09:52:58;;;;;;;11.88;5.38;;;;;;;;;;5023009;28;20064;-71
2022/04/14 09:55:24;;;;;;;8.05;4.40;;;;;;;;;;5031515;28;20454;-71
2022/04/14 09:58:05;;;;;;;8.18;4.18;;;;;;;;;;5032140;28;20133;-71
2022/04/14 10:00:41;;;;;;;8.23;3.90;;;;;;;;;;5029758;28;20478;-71
2022/04/14 10:03:15;;;;;;;9.63;3.78;;;;;;;;;;5025896;28;20068;-71
2022/04/14 10:05:42;;;;;;;9.20;4.35;;;;;;;;;;5015595;28;20057;-73
2022/04/14 10:08:08;;;;;;;8.43;3.78;;;;;;;;;;5018924;28;20073;-71
2022/04/14 10:10:41;;;;;;;11.85;4.72;;;;;;;;;;5013087;28;20475;-70
2022/04/14 10:13:09;;;;;;;9.07;3.97;;;;;;;;;;5012867;28;20038;-69
2022/04/14 10:15:39;;;;;;;9.88;4.38;;;;;;;;;;5012767;28;20045;-70
2022/04/14 10:18:07;;;;;;;7.55;4.25;;;;;;;;;;5012879;28;20516;-70
2022/04/14 10:20:34;;;;;;;10.98;3.67;;;;;;;;;;5013550;28;20448;-70
2022/04/14 10:23:00;;;;;;;10.60;4.10;;;;;;;;;;5032422;28;20436;-70
2022/04/14 10:25:27;;;;;;;8.65;3.85;;;;;;;;;;5031901;28;20061;-71
2022/04/14 10:27:54;;;;;;;6.82;3.60;;;;;;;;;;5031940;28;20073;-70
2022/04/14 10:30:20;;;;;;;8.63;3.92;;;;;;;;;;5032119;28;20069;-70
2022/04/14 10:32:47;;;;;;;4.60;3.30;;;;;;;;;;5032482;28;20049;-71
2022/04/14 10:35:13;;;;;;;6.25;3.40;;;;;;;;;;5027297;28;20073;-70
2022/04/14 10:37:44;;;;;;;9.13;3.30;;;;;;;;;;5024800;28;20448;-70
2022/04/14 10:40:11;;;;;;;6.75;3.63;;;;;;;;;;5015413;28;20604;-70
2022/04/14 10:42:38;;;;;;;5.65;3.40;;;;;;;;;;5016233;28;20439;-71
2022/04/14 10:45:36;;;;;;;9.18;3.20;;;;;;;;;;5016344;28;20046;-71
2022/04/14 10:48:03;;;;;;;6.03;3.05;;;;;;;;;;4982480;28;20133;-71
2022/04/14 10:50:30;;;;;;;6.03;3.15;;;;;;;;;;5016243;28;20045;-71
2022/04/14 10:53:06;;;;;;;5.97;2.90;;;;;;;;;;5028682;28;20473;-71
2022/04/14 10:55:45;;;;;;;4.95;2.80;;;;;;;;;;5035979;28;20037;-70
2022/04/14 10:58:26;;;;;;;5.15;2.60;;;;;;;;;;5035861;28;20080;-70
2022/04/14 11:00:53;;;;;;;8.05;2.90;;;;;;;;;;5035524;28;20133;-71
2022/04/14 11:03:19;;;;;;;6.63;2.88;;;;;;;;;;5035497;28;20120;-70
2022/04/14 11:05:49;;;;;;;3.97;2.60;;;;;;;;;;5034979;28;20037;-71
2022/04/14 11:08:28;;;;;;;3.53;2.70;;;;;;;;;;5016846;28;20046;-71
2022/04/14 11:11:10;;;;;;;5.20;2.80;;;;;;;;;;5017653;28;20724;-69
2022/04/14 11:13:55;;;;;;;7.43;3.20;;;;;;;;;;5016975;28;20046;-70
2022/04/14 11:16:40;;;;;;;5.75;2.67;;;;;;;;;;5017159;28;20042;-70
2022/04/14 11:19:27;;;;;;;6.57;2.58;;;;;;;;;;4998420;28;20133;-70
2022/04/14 11:22:02;;;;;;;5.95;2.80;;;;;;;;;;5030376;28;20048;-70
2022/04/14 11:24:41;;;;;;;4.93;2.60;;;;;;;;;;5034639;28;20045;-70
2022/04/14 11:27:11;;;;;;;5.07;2.50;;;;;;;;;;5035552;28;20049;-70
2022/04/14 11:29:37;;;;;;;4.97;2.95;;;;;;;;;;5035296;28;20088;-70
2022/04/14 11:32:04;;;;;;;5.03;2.80;;;;;;;;;;5035434;28;20049;-70
2022/04/14 11:34:33;;;;;;;4.53;2.58;;;;;;;;;;5034858;28;20061;-70
2022/04/14 11:37:01;;;;;;;4.10;2.28;;;;;;;;;;5033458;28;20408;-70
2022/04/14 11:39:27;;;;;;;4.72;2.70;;;;;;;;;;5035118;28;20054;-70
2022/04/14 11:41:54;;;;;;;3.70;2.47;;;;;;;;;;5034961;28;20121;-70
2022/04/14 11:44:20;;;;;;;5.28;2.58;;;;;;;;;;5035006;28;20037;-70
2022/04/14 11:46:54;;;;;;;4.93;2.60;;;;;;;;;;5034924;28;20053;-70
2022/04/14 11:49:23;;;;;;;4.13;2.47;;;;;;;;;;5033378;28;20451;-70
2022/04/14 11:51:53;;;;;;;5.47;2.80;;;;;;;;;;5034105;28;20080;-70
2022/04/14 11:54:33;;;;;;;7.20;2.83;;;;;;;;;;5029936;28;20037;-70
2022/04/14 11:57:09;;;;;;;3.42;2.60;;;;;;;;;;5014907;28;20065;-70
2022/04/14 11:59:39;;;;;;;5.32;2.70;;;;;;;;;;5014725;28;20386;-70
2022/04/14 12:02:08;;;;;;;6.53;2.75;;;;;;;;;;5014859;28;20547;-70
2022/04/14 12:04:38;;;;;;;3.78;2.47;;;;;;;;;;5015074;28;20628;-70
2022/04/14 12:07:05;;;;;;;4.80;2.65;;;;;;;;;;5032187;28;20125;-70
2022/04/14 12:09:31;;;;;;;4.50;2.75;;;;;;;;;;5034664;28;20408;-70
2022/04/14 12:11:57;;;;;;;4.53;2.40;;;;;;;;;;5034049;28;20042;-70
2022/04/14 12:14:23;;;;;;;6.05;2.70;;;;;;;;;;5034329;28;20128;-70
2022/04/14 12:16:49;;;;;;;4.60;2.75;;;;;;;;;;5034434;28;20041;-70
2022/04/14 12:19:15;;;;;;;3.03;2.60;;;;;;;;;;5034100;28;20136;-70
2022/04/14 12:21:41;;;;;;;3.10;2.47;;;;;;;;;;5033830;28;20148;-70
2022/04/14 12:24:07;;;;;;;5.07;2.75;;;;;;;;;;5030375;28;20551;-70
2022/04/14 12:26:37;;;;;;;3.67;2.63;;;;;;;;;;5017116;28;20064;-70
2022/04/14 12:29:12;;;;;;;4.00;2.72;;;;;;;;;;5034481;28;20068;-70
2022/04/14 12:31:38;;;;;;;4.03;2.63;;;;;;;;;;5034045;28;20132;-70
2022/04/14 12:34:09;;;;;;;4.32;2.72;;;;;;;;;;5032352;28;20129;-70
2022/04/14 12:36:36;;;;;;;4.20;2.58;;;;;;;;;;5016515;28;20124;-70
2022/04/14 12:39:04;;;;;;;3.88;2.58;;;;;;;;;;5021995;28;20045;-70
2022/04/14 12:41:35;;;;;;;4.22;2.83;;;;;;;;;;5014269;28;20124;-69
2022/04/14 12:44:01;;;;;;;4.75;2.60;;;;;;;;;;5014438;28;20195;-69
2022/04/14 12:46:35;;;;;;;10.18;3.03;;;;;;;;;;5026225;28;20037;-70
2022/04/14 12:49:10;;;;;;;4.63;2.80;;;;;;;;;;5033303;28;20132;-70
2022/04/14 12:51:38;;;;;;;4.83;3.07;;;;;;;;;;5033175;28;20049;-70
2022/04/14 12:54:04;;;;;;;6.55;2.95;;;;;;;;;;5033399;28;20061;-70
2022/04/14 12:56:32;;;;;;;4.18;2.58;;;;;;;;;;5032815;28;20120;-70
2022/04/14 12:59:15;;;;;;;5.53;3.22;;;;;;;;;;5033532;28;20053;-70
2022/04/14 13:01:44;;;;;;;4.32;3.00;;;;;;;;;;5033269;28;20077;-70
2022/04/14 13:04:14;;;;;;;5.20;3.25;;;;;;;;;;5015120;28;20038;-70
2022/04/14 13:06:40;;;;;;;3.67;2.70;;;;;;;;;;5013735;28;20148;-70
2022/04/14 13:09:13;;;;;;;5.30;2.63;;;;;;;;;;5013814;28;20115;-70
2022/04/14 13:11:41;;;;;;;6.90;3.25;;;;;;;;;;5024440;28;20180;-70
2022/04/14 13:14:16;;;;;;;6.03;3.45;;;;;;;;;;5033390;28;20125;-70
2022/04/14 13:16:44;;;;;;;6.13;3.08;;;;;;;;;;5015497;28;20136;-70
2022/04/14 13:19:10;;;;;;;8.55;2.95;;;;;;;;;;5029281;28;20041;-70
2022/04/14 13:21:36;;;;;;;4.82;3.03;;;;;;;;;;5013319;28;20053;-70
2022/04/14 13:24:03;;;;;;;4.85;2.80;;;;;;;;;;5013461;28;20050;-70
2022/04/14 13:26:29;;;;;;;5.88;3.20;;;;;;;;;;5030219;28;20049;-69
2022/04/14 13:28:55;;;;;;;4.25;2.75;;;;;;;;;;5025637;28;20564;-69
2022/04/14 13:31:21;;;;;;;6.93;2.80;;;;;;;;;;5023890;28;20050;-69
2022/04/14 13:33:47;;;;;;;5.47;2.70;;;;;;;;;;5029995;28;20073;-69
2022/04/14 13:36:13;;;;;;;6.47;2.75;;;;;;;;;;5013399;28;20124;-69
2022/04/14 13:38:39;;;;;;;6.70;2.75;;;;;;;;;;5013480;28;20042;-69
2022/04/14 13:41:06;;;;;;;5.45;2.70;;;;;;;;;;5024996;28;20103;-69
2022/04/14 13:43:32;;;;;;;7.07;2.88;;;;;;;;;;5018412;28;20045;-69
2022/04/14 13:45:58;;;;;;;4.97;2.58;;;;;;;;;;5032284;28;20060;-69
2022/04/14 13:48:24;;;;;;;7.10;3.08;;;;;;;;;;5032829;28;20041;-69
2022/04/14 13:50:50;;;;;;;5.95;2.60;;;;;;;;;;5015087;28;20467;-69
2022/04/14 13:53:17;;;;;;;7.10;2.50;;;;;;;;;;5033218;28;20045;-69
2022/04/14 13:55:43;;;;;;;4.38;2.60;;;;;;;;;;5032662;28;20049;-69
2022/04/14 13:58:09;;;;;;;7.28;2.47;;;;;;;;;;5028810;28;20145;-70
2022/04/14 14:00:35;;;;;;;6.40;2.47;;;;;;;;;;5032072;28;20050;-69
2022/04/14 14:03:04;;;;;;;6.65;2.83;;;;;;;;;;5032677;28;20083;-69
2022/04/14 14:05:30;;;;;;;5.85;2.60;;;;;;;;;;5021744;28;20038;-69
2022/04/14 14:07:56;;;;;;;6.00;2.90;;;;;;;;;;5013210;28;20401;-68
2022/04/14 14:10:22;;;;;;;5.28;2.90;;;;;;;;;;5012901;28;20516;-68
2022/04/14 14:12:48;;;;;;;5.25;2.70;;;;;;;;;;5025131;28;20053;-69
2022/04/14 14:15:14;;;;;;;5.65;2.75;;;;;;;;;;5036316;28;20512;-69
2022/04/14 14:17:40;;;;;;;5.30;2.63;;;;;;;;;;5036609;28;20135;-68
2022/04/14 14:20:08;;;;;;;9.25;3.00;;;;;;;;;;5035069;28;20037;-69
2022/04/14 14:22:34;;;;;;;9.23;2.80;;;;;;;;;;5018026;28;20041;-69
2022/04/14 14:25:00;;;;;;;11.18;3.30;;;;;;;;;;5036206;28;20447;-68
2022/04/14 14:27:26;;;;;;;6.50;3.17;;;;;;;;;;5015332;28;20038;-68
2022/04/14 14:29:52;;;;;;;12.32;3.45;;;;;;;;;;5021174;28;20083;-69
2022/04/14 14:32:18;;;;;;;9.48;3.03;;;;;;;;;;5018765;28;20049;-68
2022/04/14 14:34:44;;;;;;;10.65;3.08;;;;;;;;;;5036061;28;20049;-69
2022/04/14 14:37:10;;;;;;;8.07;3.00;;;;;;;;;;5036113;28;20045;-68
2022/04/14 14:39:36;;;;;;;8.88;2.92;;;;;;;;;;5036061;28;20493;-68
2022/04/14 14:42:05;;;;;;;5.65;2.42;;;;;;;;;;5035909;28;20424;-69